sensor_id;sensor_type;location;lat;lon;timestamp;P1;durP1;ratioP1;P2;durP2;ratioP2
78656;SDS011;67973;0.000;0.000;2023-02-18T18:24:33;836.60;;;803.35;;
78656;SDS011;67973;0.000;0.000;2023-02-18T18:26:59;835.00;;;801.85;;
78656;SDS011;67973;0.000;0.000;2023-02-18T18:29:25;835.92;;;802.67;;
78656;SDS011;67973;0.000;0.000;2023-02-18T18:31:51;836.45;;;803.22;;
78656;SDS011;67973;0.000;0.000;2023-02-18T18:34:17;839.95;;;806.30;;
78656;SDS011;67973;0.000;0.000;2023-02-18T18:36:43;840.63;;;806.92;;
78656;SDS011;67973;0.000;0.000;2023-02-18T18:39:09;842.47;;;808.33;;
78656;SDS011;67973;0.000;0.000;2023-02-18T18:41:35;842.00;;;807.95;;
78656;SDS011;67973;0.000;0.000;2023-02-18T18:44:04;840.35;;;806.58;;
78656;SDS011;67973;0.000;0.000;2023-02-18T18:46:30;841.63;;;807.78;;
78656;SDS011;67973;0.000;0.000;2023-02-18T18:48:56;843.97;;;809.75;;
78656;SDS011;67973;0.000;0.000;2023-02-18T18:51:29;844.92;;;810.58;;
78656;SDS011;67973;0.000;0.000;2023-02-18T18:53:55;844.17;;;809.97;;
78656;SDS011;67973;0.000;0.000;2023-02-18T18:56:21;846.47;;;812.22;;
78656;SDS011;67973;0.000;0.000;2023-02-18T18:58:48;847.15;;;812.90;;
78656;SDS011;67973;0.000;0.000;2023-02-18T19:03:14;852.35;;;817.40;;
78656;SDS011;67973;0.000;0.000;2023-02-18T19:05:40;854.90;;;819.75;;
78656;SDS011;67973;0.000;0.000;2023-02-18T19:08:08;857.58;;;821.88;;
78656;SDS011;67973;0.000;0.000;2023-02-18T19:10:40;855.50;;;820.17;;
78656;SDS011;67973;0.000;0.000;2023-02-18T19:15:36;854.17;;;819.03;;
78656;SDS011;67973;0.000;0.000;2023-02-18T19:18:02;857.80;;;822.38;;
78656;SDS011;67973;0.000;0.000;2023-02-18T19:20:29;856.75;;;821.50;;
78656;SDS011;67973;0.000;0.000;2023-02-18T19:22:55;852.50;;;817.70;;
78656;SDS011;67973;0.000;0.000;2023-02-18T19:25:21;848.80;;;814.05;;
78656;SDS011;67973;0.000;0.000;2023-02-18T19:27:48;851.40;;;816.58;;
78656;SDS011;67973;0.000;0.000;2023-02-18T19:30:15;851.78;;;816.67;;
78656;SDS011;67973;0.000;0.000;2023-02-18T19:32:42;851.00;;;816.08;;
78656;SDS011;67973;0.000;0.000;2023-02-18T19:35:08;850.88;;;815.80;;
78656;SDS011;67973;0.000;0.000;2023-02-18T19:37:34;851.60;;;816.85;;
78656;SDS011;67973;0.000;0.000;2023-02-18T19:40:01;853.40;;;818.40;;
78656;SDS011;67973;0.000;0.000;2023-02-18T19:42:27;853.63;;;818.67;;
78656;SDS011;67973;0.000;0.000;2023-02-18T19:44:53;848.75;;;814.05;;
78656;SDS011;67973;0.000;0.000;2023-02-18T19:47:23;849.35;;;814.40;;
78656;SDS011;67973;0.000;0.000;2023-02-18T19:49:50;849.65;;;814.95;;
78656;SDS011;67973;0.000;0.000;2023-02-18T19:52:16;850.03;;;815.28;;
78656;SDS011;67973;0.000;0.000;2023-02-18T19:54:42;847.50;;;813.05;;
78656;SDS011;67973;0.000;0.000;2023-02-18T19:57:09;847.97;;;813.55;;
78656;SDS011;67973;0.000;0.000;2023-02-18T19:59:35;847.25;;;812.83;;
78656;SDS011;67973;0.000;0.000;2023-02-18T20:02:01;844.22;;;809.97;;
78656;SDS011;67973;0.000;0.000;2023-02-18T20:04:28;846.13;;;811.88;;
78656;SDS011;67973;0.000;0.000;2023-02-18T20:06:54;844.00;;;809.92;;
78656;SDS011;67973;0.000;0.000;2023-02-18T20:09:20;845.35;;;811.20;;
78656;SDS011;67973;0.000;0.000;2023-02-18T20:11:46;846.63;;;812.38;;
78656;SDS011;67973;0.000;0.000;2023-02-18T20:14:12;843.85;;;809.92;;
78656;SDS011;67973;0.000;0.000;2023-02-18T20:16:39;844.50;;;810.65;;
78656;SDS011;67973;0.000;0.000;2023-02-18T20:19:05;840.70;;;806.95;;
78656;SDS011;67973;0.000;0.000;2023-02-18T20:21:31;842.90;;;808.78;;
78656;SDS011;67973;0.000;0.000;2023-02-18T20:23:57;844.22;;;810.08;;
78656;SDS011;67973;0.000;0.000;2023-02-18T20:26:23;841.95;;;808.28;;
78656;SDS011;67973;0.000;0.000;2023-02-18T20:28:49;841.83;;;808.10;;
78656;SDS011;67973;0.000;0.000;2023-02-18T20:31:15;838.53;;;805.10;;
78656;SDS011;67973;0.000;0.000;2023-02-18T20:33:42;839.17;;;805.80;;
78656;SDS011;67973;0.000;0.000;2023-02-18T20:36:08;841.45;;;807.85;;
78656;SDS011;67973;0.000;0.000;2023-02-18T20:38:36;841.53;;;807.88;;
78656;SDS011;67973;0.000;0.000;2023-02-18T20:41:07;838.88;;;805.33;;
78656;SDS011;67973;0.000;0.000;2023-02-18T20:43:33;842.28;;;808.63;;
78656;SDS011;67973;0.000;0.000;2023-02-18T20:46:00;841.47;;;807.83;;
78656;SDS011;67973;0.000;0.000;2023-02-18T20:48:26;840.90;;;807.25;;
78656;SDS011;67973;0.000;0.000;2023-02-18T20:50:52;841.40;;;807.88;;
78656;SDS011;67973;0.000;0.000;2023-02-18T20:53:18;845.35;;;811.33;;
78656;SDS011;67973;0.000;0.000;2023-02-18T20:55:45;842.83;;;809.08;;
78656;SDS011;67973;0.000;0.000;2023-02-18T20:58:11;840.28;;;806.58;;
78656;SDS011;67973;0.000;0.000;2023-02-18T21:00:37;842.58;;;808.92;;
78656;SDS011;67973;0.000;0.000;2023-02-18T21:03:03;841.15;;;807.25;;
78656;SDS011;67973;0.000;0.000;2023-02-18T21:05:29;843.97;;;809.92;;
78656;SDS011;67973;0.000;0.000;2023-02-18T21:07:55;846.50;;;812.15;;
78656;SDS011;67973;0.000;0.000;2023-02-18T21:10:21;849.20;;;814.35;;
78656;SDS011;67973;0.000;0.000;2023-02-18T21:12:48;851.13;;;816.17;;
78656;SDS011;67973;0.000;0.000;2023-02-18T21:15:14;851.63;;;816.78;;
78656;SDS011;67973;0.000;0.000;2023-02-18T21:17:40;847.92;;;813.28;;
78656;SDS011;67973;0.000;0.000;2023-02-18T21:20:06;848.72;;;814.08;;
78656;SDS011;67973;0.000;0.000;2023-02-18T21:22:32;849.00;;;814.38;;
78656;SDS011;67973;0.000;0.000;2023-02-18T21:24:58;851.22;;;816.50;;
78656;SDS011;67973;0.000;0.000;2023-02-18T21:27:24;849.90;;;815.28;;
78656;SDS011;67973;0.000;0.000;2023-02-18T21:29:50;851.80;;;816.95;;
78656;SDS011;67973;0.000;0.000;2023-02-18T21:32:16;848.60;;;813.45;;
78656;SDS011;67973;0.000;0.000;2023-02-18T21:34:42;848.45;;;813.90;;
78656;SDS011;67973;0.000;0.000;2023-02-18T21:37:08;848.65;;;814.17;;
78656;SDS011;67973;0.000;0.000;2023-02-18T21:39:35;851.58;;;816.72;;
78656;SDS011;67973;0.000;0.000;2023-02-18T21:42:01;852.08;;;817.13;;
78656;SDS011;67973;0.000;0.000;2023-02-18T21:44:28;852.60;;;817.42;;
78656;SDS011;67973;0.000;0.000;2023-02-18T21:46:54;853.03;;;818.00;;
78656;SDS011;67973;0.000;0.000;2023-02-18T21:49:20;853.03;;;818.17;;
78656;SDS011;67973;0.000;0.000;2023-02-18T21:51:47;850.90;;;816.13;;
78656;SDS011;67973;0.000;0.000;2023-02-18T21:54:40;848.95;;;814.25;;
78656;SDS011;67973;0.000;0.000;2023-02-18T21:57:10;852.22;;;817.28;;
78656;SDS011;67973;0.000;0.000;2023-02-18T21:59:36;853.63;;;818.50;;
78656;SDS011;67973;0.000;0.000;2023-02-18T22:02:03;855.00;;;819.67;;
78656;SDS011;67973;0.000;0.000;2023-02-18T22:04:30;852.70;;;817.60;;
78656;SDS011;67973;0.000;0.000;2023-02-18T22:06:56;854.42;;;819.28;;
78656;SDS011;67973;0.000;0.000;2023-02-18T22:09:23;854.83;;;819.80;;
78656;SDS011;67973;0.000;0.000;2023-02-18T22:11:49;854.65;;;819.50;;
78656;SDS011;67973;0.000;0.000;2023-02-18T22:14:15;853.08;;;818.00;;
78656;SDS011;67973;0.000;0.000;2023-02-18T22:16:41;853.60;;;818.53;;
78656;SDS011;67973;0.000;0.000;2023-02-18T22:19:09;855.72;;;820.20;;
78656;SDS011;67973;0.000;0.000;2023-02-18T22:21:35;854.58;;;819.55;;
78656;SDS011;67973;0.000;0.000;2023-02-18T22:24:02;853.17;;;817.88;;
78656;SDS011;67973;0.000;0.000;2023-02-18T22:26:28;853.53;;;818.40;;
78656;SDS011;67973;0.000;0.000;2023-02-18T22:28:56;850.88;;;816.25;;
78656;SDS011;67973;0.000;0.000;2023-02-18T22:31:23;847.77;;;813.17;;
78656;SDS011;67973;0.000;0.000;2023-02-18T22:33:53;851.63;;;816.80;;
78656;SDS011;67973;0.000;0.000;2023-02-18T22:36:20;851.35;;;816.70;;
78656;SDS011;67973;0.000;0.000;2023-02-18T22:38:46;850.65;;;815.90;;
78656;SDS011;67973;0.000;0.000;2023-02-18T22:41:13;849.72;;;815.17;;
78656;SDS011;67973;0.000;0.000;2023-02-18T22:43:39;848.63;;;814.03;;
78656;SDS011;67973;0.000;0.000;2023-02-18T22:46:15;850.67;;;816.00;;
78656;SDS011;67973;0.000;0.000;2023-02-18T22:48:41;846.35;;;812.10;;
78656;SDS011;67973;0.000;0.000;2023-02-18T22:51:12;848.40;;;813.95;;
78656;SDS011;67973;0.000;0.000;2023-02-18T22:53:38;845.95;;;811.60;;
78656;SDS011;67973;0.000;0.000;2023-02-18T22:56:11;849.38;;;814.72;;
78656;SDS011;67973;0.000;0.000;2023-02-18T22:58:38;846.28;;;811.95;;
78656;SDS011;67973;0.000;0.000;2023-02-18T23:01:04;846.88;;;812.47;;
78656;SDS011;67973;0.000;0.000;2023-02-18T23:03:33;846.15;;;811.80;;
78656;SDS011;67973;0.000;0.000;2023-02-18T23:06:01;845.60;;;811.35;;
78656;SDS011;67973;0.000;0.000;2023-02-18T23:08:27;846.60;;;812.20;;
78656;SDS011;67973;0.000;0.000;2023-02-18T23:11:00;845.35;;;811.10;;
78656;SDS011;67973;0.000;0.000;2023-02-18T23:13:26;847.53;;;813.00;;
78656;SDS011;67973;0.000;0.000;2023-02-18T23:15:59;845.08;;;810.83;;
78656;SDS011;67973;0.000;0.000;2023-02-18T23:18:25;846.42;;;811.97;;
78656;SDS011;67973;0.000;0.000;2023-02-18T23:20:52;844.22;;;810.17;;
78656;SDS011;67973;0.000;0.000;2023-02-18T23:23:37;844.10;;;810.08;;
78656;SDS011;67973;0.000;0.000;2023-02-18T23:26:03;845.75;;;811.45;;
78656;SDS011;67973;0.000;0.000;2023-02-18T23:28:29;845.38;;;811.22;;
78656;SDS011;67973;0.000;0.000;2023-02-18T23:31:11;844.13;;;809.83;;
78656;SDS011;67973;0.000;0.000;2023-02-18T23:33:37;844.15;;;809.95;;
78656;SDS011;67973;0.000;0.000;2023-02-18T23:36:08;841.97;;;807.97;;
78656;SDS011;67973;0.000;0.000;2023-02-18T23:38:34;838.85;;;805.10;;
78656;SDS011;67973;0.000;0.000;2023-02-18T23:41:00;843.40;;;809.45;;
78656;SDS011;67973;0.000;0.000;2023-02-18T23:43:28;840.45;;;806.65;;
78656;SDS011;67973;0.000;0.000;2023-02-18T23:48:20;834.17;;;801.15;;
78656;SDS011;67973;0.000;0.000;2023-02-18T23:50:47;839.63;;;806.08;;
78656;SDS011;67973;0.000;0.000;2023-02-18T23:53:13;841.88;;;807.95;;
78656;SDS011;67973;0.000;0.000;2023-02-18T23:55:39;839.38;;;805.65;;
78656;SDS011;67973;0.000;0.000;2023-02-18T23:58:05;841.65;;;807.80;;
